sensor_id;sensor_type;location;lat;lon;timestamp;P1;durP1;ratioP1;P2;durP2;ratioP2
33413;SDS011;60055;41.884;12.534;2023-05-07T00:01:15;12.13;;;9.45;;
33413;SDS011;60055;41.884;12.534;2023-05-07T00:03:41;11.95;;;9.68;;
33413;SDS011;60055;41.884;12.534;2023-05-07T00:06:06;12.68;;;8.75;;
33413;SDS011;60055;41.884;12.534;2023-05-07T00:08:35;11.23;;;8.65;;
33413;SDS011;60055;41.884;12.534;2023-05-07T00:11:00;10.60;;;7.70;;
33413;SDS011;60055;41.884;12.534;2023-05-07T00:13:25;12.90;;;8.82;;
33413;SDS011;60055;41.884;12.534;2023-05-07T00:15:52;9.95;;;8.25;;
33413;SDS011;60055;41.884;12.534;2023-05-07T00:18:17;10.02;;;8.07;;
33413;SDS011;60055;41.884;12.534;2023-05-07T00:20:46;10.77;;;8.52;;
33413;SDS011;60055;41.884;12.534;2023-05-07T00:23:11;10.52;;;7.97;;
33413;SDS011;60055;41.884;12.534;2023-05-07T00:25:36;11.95;;;8.35;;
33413;SDS011;60055;41.884;12.534;2023-05-07T00:28:02;11.02;;;7.82;;
33413;SDS011;60055;41.884;12.534;2023-05-07T00:30:28;11.38;;;7.95;;
33413;SDS011;60055;41.884;12.534;2023-05-07T00:32:54;11.55;;;8.40;;
33413;SDS011;60055;41.884;12.534;2023-05-07T00:35:19;10.75;;;7.97;;
33413;SDS011;60055;41.884;12.534;2023-05-07T00:37:45;10.27;;;7.82;;
33413;SDS011;60055;41.884;12.534;2023-05-07T00:40:10;10.07;;;7.60;;
33413;SDS011;60055;41.884;12.534;2023-05-07T00:42:36;9.50;;;7.57;;
33413;SDS011;60055;41.884;12.534;2023-05-07T00:45:02;11.40;;;8.48;;
33413;SDS011;60055;41.884;12.534;2023-05-07T00:47:27;9.32;;;7.47;;
33413;SDS011;60055;41.884;12.534;2023-05-07T00:49:53;7.88;;;6.63;;
33413;SDS011;60055;41.884;12.534;2023-05-07T00:52:19;10.23;;;7.47;;
33413;SDS011;60055;41.884;12.534;2023-05-07T00:54:46;8.48;;;7.05;;
33413;SDS011;60055;41.884;12.534;2023-05-07T00:57:12;12.10;;;8.00;;
33413;SDS011;60055;41.884;12.534;2023-05-07T00:59:38;8.02;;;6.90;;
33413;SDS011;60055;41.884;12.534;2023-05-07T01:02:05;10.07;;;6.35;;
33413;SDS011;60055;41.884;12.534;2023-05-07T01:04:31;8.45;;;6.60;;
33413;SDS011;60055;41.884;12.534;2023-05-07T01:06:56;9.18;;;6.68;;
33413;SDS011;60055;41.884;12.534;2023-05-07T01:09:24;9.57;;;6.93;;
33413;SDS011;60055;41.884;12.534;2023-05-07T01:11:50;9.65;;;7.55;;
33413;SDS011;60055;41.884;12.534;2023-05-07T01:14:17;10.82;;;7.78;;
33413;SDS011;60055;41.884;12.534;2023-05-07T01:16:44;10.73;;;7.72;;
33413;SDS011;60055;41.884;12.534;2023-05-07T01:19:09;10.52;;;8.30;;
33413;SDS011;60055;41.884;12.534;2023-05-07T01:21:38;10.75;;;8.25;;
33413;SDS011;60055;41.884;12.534;2023-05-07T01:24:10;10.45;;;8.70;;
33413;SDS011;60055;41.884;12.534;2023-05-07T01:26:36;8.80;;;7.72;;
33413;SDS011;60055;41.884;12.534;2023-05-07T01:29:02;10.57;;;8.50;;
33413;SDS011;60055;41.884;12.534;2023-05-07T01:31:28;8.98;;;7.97;;
33413;SDS011;60055;41.884;12.534;2023-05-07T01:33:54;9.77;;;7.85;;
33413;SDS011;60055;41.884;12.534;2023-05-07T01:36:21;9.38;;;8.07;;
33413;SDS011;60055;41.884;12.534;2023-05-07T01:38:50;9.93;;;7.90;;
33413;SDS011;60055;41.884;12.534;2023-05-07T01:41:16;10.05;;;8.52;;
33413;SDS011;60055;41.884;12.534;2023-05-07T01:43:42;11.23;;;8.38;;
33413;SDS011;60055;41.884;12.534;2023-05-07T01:46:08;10.05;;;7.82;;
33413;SDS011;60055;41.884;12.534;2023-05-07T01:48:35;10.85;;;8.13;;
33413;SDS011;60055;41.884;12.534;2023-05-07T01:51:01;9.90;;;7.40;;
33413;SDS011;60055;41.884;12.534;2023-05-07T01:53:27;11.13;;;8.15;;
33413;SDS011;60055;41.884;12.534;2023-05-07T01:55:53;13.57;;;8.70;;
33413;SDS011;60055;41.884;12.534;2023-05-07T01:58:18;12.38;;;8.23;;
33413;SDS011;60055;41.884;12.534;2023-05-07T02:00:44;10.02;;;7.60;;
33413;SDS011;60055;41.884;12.534;2023-05-07T02:03:09;10.60;;;8.90;;
33413;SDS011;60055;41.884;12.534;2023-05-07T02:05:34;12.57;;;8.55;;
33413;SDS011;60055;41.884;12.534;2023-05-07T02:08:00;10.10;;;8.68;;
33413;SDS011;60055;41.884;12.534;2023-05-07T02:10:25;14.70;;;8.77;;
33413;SDS011;60055;41.884;12.534;2023-05-07T02:12:51;12.52;;;8.00;;
33413;SDS011;60055;41.884;12.534;2023-05-07T02:15:16;10.38;;;7.70;;
33413;SDS011;60055;41.884;12.534;2023-05-07T02:18:01;14.02;;;7.80;;
33413;SDS011;60055;41.884;12.534;2023-05-07T02:20:29;12.38;;;7.10;;
33413;SDS011;60055;41.884;12.534;2023-05-07T02:22:54;10.07;;;7.40;;
33413;SDS011;60055;41.884;12.534;2023-05-07T02:25:19;9.35;;;7.35;;
33413;SDS011;60055;41.884;12.534;2023-05-07T02:27:45;8.63;;;6.85;;
33413;SDS011;60055;41.884;12.534;2023-05-07T02:30:10;8.90;;;6.63;;
33413;SDS011;60055;41.884;12.534;2023-05-07T02:32:36;8.68;;;6.30;;
33413;SDS011;60055;41.884;12.534;2023-05-07T02:35:01;8.57;;;6.50;;
33413;SDS011;60055;41.884;12.534;2023-05-07T02:37:27;8.98;;;6.38;;
33413;SDS011;60055;41.884;12.534;2023-05-07T02:39:52;8.30;;;6.13;;
33413;SDS011;60055;41.884;12.534;2023-05-07T02:42:18;8.80;;;6.20;;
33413;SDS011;60055;41.884;12.534;2023-05-07T02:44:43;8.95;;;6.03;;
33413;SDS011;60055;41.884;12.534;2023-05-07T02:47:09;8.50;;;6.28;;
33413;SDS011;60055;41.884;12.534;2023-05-07T02:49:35;11.18;;;6.60;;
33413;SDS011;60055;41.884;12.534;2023-05-07T02:52:00;10.90;;;7.07;;
33413;SDS011;60055;41.884;12.534;2023-05-07T02:54:26;14.60;;;7.32;;
33413;SDS011;60055;41.884;12.534;2023-05-07T02:56:51;13.43;;;7.43;;
33413;SDS011;60055;41.884;12.534;2023-05-07T02:59:17;12.80;;;7.22;;
33413;SDS011;60055;41.884;12.534;2023-05-07T03:01:42;10.98;;;6.88;;
33413;SDS011;60055;41.884;12.534;2023-05-07T03:04:10;13.68;;;6.75;;
33413;SDS011;60055;41.884;12.534;2023-05-07T03:06:35;13.55;;;6.50;;
33413;SDS011;60055;41.884;12.534;2023-05-07T03:09:01;8.48;;;5.28;;
33413;SDS011;60055;41.884;12.534;2023-05-07T03:11:27;9.65;;;5.93;;
33413;SDS011;60055;41.884;12.534;2023-05-07T03:13:52;10.55;;;5.80;;
33413;SDS011;60055;41.884;12.534;2023-05-07T03:16:18;9.65;;;5.07;;
33413;SDS011;60055;41.884;12.534;2023-05-07T03:18:43;8.77;;;5.25;;
33413;SDS011;60055;41.884;12.534;2023-05-07T03:21:08;8.65;;;4.95;;
33413;SDS011;60055;41.884;12.534;2023-05-07T03:23:34;9.13;;;4.50;;
33413;SDS011;60055;41.884;12.534;2023-05-07T03:25:59;7.55;;;4.57;;
33413;SDS011;60055;41.884;12.534;2023-05-07T03:28:25;7.43;;;4.75;;
33413;SDS011;60055;41.884;12.534;2023-05-07T03:30:50;10.32;;;4.97;;
33413;SDS011;60055;41.884;12.534;2023-05-07T03:33:16;7.45;;;4.53;;
33413;SDS011;60055;41.884;12.534;2023-05-07T03:35:41;7.15;;;4.50;;
33413;SDS011;60055;41.884;12.534;2023-05-07T03:38:06;7.72;;;4.72;;
33413;SDS011;60055;41.884;12.534;2023-05-07T03:40:32;7.75;;;4.15;;
33413;SDS011;60055;41.884;12.534;2023-05-07T03:42:58;6.28;;;4.15;;
33413;SDS011;60055;41.884;12.534;2023-05-07T03:45:24;8.48;;;4.32;;
33413;SDS011;60055;41.884;12.534;2023-05-07T03:47:50;8.70;;;4.50;;
33413;SDS011;60055;41.884;12.534;2023-05-07T03:50:16;7.28;;;4.60;;
33413;SDS011;60055;41.884;12.534;2023-05-07T03:52:41;6.72;;;4.35;;
33413;SDS011;60055;41.884;12.534;2023-05-07T03:55:07;8.70;;;4.32;;
33413;SDS011;60055;41.884;12.534;2023-05-07T03:57:33;10.65;;;4.20;;
33413;SDS011;60055;41.884;12.534;2023-05-07T03:59:58;7.68;;;4.40;;
33413;SDS011;60055;41.884;12.534;2023-05-07T04:02:24;7.53;;;4.50;;
33413;SDS011;60055;41.884;12.534;2023-05-07T04:04:49;6.10;;;4.30;;
33413;SDS011;60055;41.884;12.534;2023-05-07T04:07:15;7.70;;;4.03;;
33413;SDS011;60055;41.884;12.534;2023-05-07T04:09:41;9.30;;;4.22;;
33413;SDS011;60055;41.884;12.534;2023-05-07T04:12:06;7.82;;;4.78;;
33413;SDS011;60055;41.884;12.534;2023-05-07T04:14:32;8.35;;;4.55;;
33413;SDS011;60055;41.884;12.534;2023-05-07T04:16:58;8.82;;;4.82;;
33413;SDS011;60055;41.884;12.534;2023-05-07T04:19:24;6.95;;;4.75;;
33413;SDS011;60055;41.884;12.534;2023-05-07T04:21:49;8.23;;;4.55;;
33413;SDS011;60055;41.884;12.534;2023-05-07T04:24:15;9.38;;;4.90;;
33413;SDS011;60055;41.884;12.534;2023-05-07T04:26:40;8.23;;;4.90;;
33413;SDS011;60055;41.884;12.534;2023-05-07T04:29:06;7.32;;;4.88;;
33413;SDS011;60055;41.884;12.534;2023-05-07T04:31:31;9.50;;;4.90;;
33413;SDS011;60055;41.884;12.534;2023-05-07T04:33:57;6.97;;;5.20;;
33413;SDS011;60055;41.884;12.534;2023-05-07T04:36:22;9.93;;;6.00;;
33413;SDS011;60055;41.884;12.534;2023-05-07T04:38:49;11.18;;;5.82;;
33413;SDS011;60055;41.884;12.534;2023-05-07T04:41:14;10.65;;;5.80;;
33413;SDS011;60055;41.884;12.534;2023-05-07T04:43:40;10.27;;;6.10;;
33413;SDS011;60055;41.884;12.534;2023-05-07T04:46:06;9.30;;;7.20;;
33413;SDS011;60055;41.884;12.534;2023-05-07T04:48:32;13.07;;;6.95;;
33413;SDS011;60055;41.884;12.534;2023-05-07T04:50:57;14.57;;;8.68;;
33413;SDS011;60055;41.884;12.534;2023-05-07T04:53:23;15.85;;;9.20;;
33413;SDS011;60055;41.884;12.534;2023-05-07T04:55:48;10.18;;;8.05;;
33413;SDS011;60055;41.884;12.534;2023-05-07T04:58:14;12.93;;;9.20;;
33413;SDS011;60055;41.884;12.534;2023-05-07T05:00:39;12.13;;;8.73;;
33413;SDS011;60055;41.884;12.534;2023-05-07T05:03:06;12.02;;;8.65;;
33413;SDS011;60055;41.884;12.534;2023-05-07T05:05:32;16.00;;;9.48;;
33413;SDS011;60055;41.884;12.534;2023-05-07T05:07:57;13.68;;;8.70;;
33413;SDS011;60055;41.884;12.534;2023-05-07T05:10:22;11.18;;;8.77;;
33413;SDS011;60055;41.884;12.534;2023-05-07T05:12:48;11.73;;;8.77;;
33413;SDS011;60055;41.884;12.534;2023-05-07T05:15:13;12.57;;;9.27;;
33413;SDS011;60055;41.884;12.534;2023-05-07T05:17:39;13.77;;;9.40;;
33413;SDS011;60055;41.884;12.534;2023-05-07T05:20:05;14.32;;;9.55;;
33413;SDS011;60055;41.884;12.534;2023-05-07T05:22:31;14.10;;;9.77;;
33413;SDS011;60055;41.884;12.534;2023-05-07T05:24:57;14.80;;;9.80;;
33413;SDS011;60055;41.884;12.534;2023-05-07T05:27:22;13.18;;;9.23;;
33413;SDS011;60055;41.884;12.534;2023-05-07T05:29:49;12.88;;;9.60;;
33413;SDS011;60055;41.884;12.534;2023-05-07T05:32:14;13.82;;;9.07;;
33413;SDS011;60055;41.884;12.534;2023-05-07T05:34:40;15.10;;;8.70;;
33413;SDS011;60055;41.884;12.534;2023-05-07T05:37:05;11.38;;;7.68;;
33413;SDS011;60055;41.884;12.534;2023-05-07T05:39:31;15.40;;;8.70;;
33413;SDS011;60055;41.884;12.534;2023-05-07T05:41:56;14.45;;;8.60;;
33413;SDS011;60055;41.884;12.534;2023-05-07T05:44:21;13.20;;;7.90;;
33413;SDS011;60055;41.884;12.534;2023-05-07T05:46:47;13.50;;;6.97;;
33413;SDS011;60055;41.884;12.534;2023-05-07T05:49:14;8.13;;;5.30;;
33413;SDS011;60055;41.884;12.534;2023-05-07T05:51:40;9.70;;;6.07;;
33413;SDS011;60055;41.884;12.534;2023-05-07T05:54:05;7.20;;;5.22;;
33413;SDS011;60055;41.884;12.534;2023-05-07T05:56:31;9.63;;;5.40;;
33413;SDS011;60055;41.884;12.534;2023-05-07T05:58:56;7.28;;;5.10;;
33413;SDS011;60055;41.884;12.534;2023-05-07T06:01:21;6.15;;;4.30;;
33413;SDS011;60055;41.884;12.534;2023-05-07T06:03:47;8.88;;;4.70;;
33413;SDS011;60055;41.884;12.534;2023-05-07T06:06:12;7.97;;;4.20;;
33413;SDS011;60055;41.884;12.534;2023-05-07T06:08:39;6.40;;;4.18;;
33413;SDS011;60055;41.884;12.534;2023-05-07T06:11:05;6.35;;;4.32;;
33413;SDS011;60055;41.884;12.534;2023-05-07T06:13:30;6.22;;;3.80;;
33413;SDS011;60055;41.884;12.534;2023-05-07T06:15:55;11.70;;;4.40;;
33413;SDS011;60055;41.884;12.534;2023-05-07T06:18:21;8.25;;;4.00;;
33413;SDS011;60055;41.884;12.534;2023-05-07T06:20:46;8.15;;;4.47;;
33413;SDS011;60055;41.884;12.534;2023-05-07T06:23:12;7.38;;;4.25;;
33413;SDS011;60055;41.884;12.534;2023-05-07T06:25:37;6.05;;;4.53;;
33413;SDS011;60055;41.884;12.534;2023-05-07T06:28:02;7.68;;;4.80;;
33413;SDS011;60055;41.884;12.534;2023-05-07T06:30:28;6.53;;;4.40;;
33413;SDS011;60055;41.884;12.534;2023-05-07T06:32:53;11.38;;;5.38;;
33413;SDS011;60055;41.884;12.534;2023-05-07T06:35:19;6.68;;;4.55;;
33413;SDS011;60055;41.884;12.534;2023-05-07T06:37:44;7.85;;;5.13;;
33413;SDS011;60055;41.884;12.534;2023-05-07T06:40:10;7.95;;;4.68;;
33413;SDS011;60055;41.884;12.534;2023-05-07T06:42:36;5.72;;;4.40;;
33413;SDS011;60055;41.884;12.534;2023-05-07T06:45:02;8.20;;;3.58;;
33413;SDS011;60055;41.884;12.534;2023-05-07T06:47:27;8.63;;;4.18;;
33413;SDS011;60055;41.884;12.534;2023-05-07T06:49:53;10.73;;;6.95;;
33413;SDS011;60055;41.884;12.534;2023-05-07T06:52:18;5.43;;;4.65;;
33413;SDS011;60055;41.884;12.534;2023-05-07T06:54:43;7.70;;;3.78;;
33413;SDS011;60055;41.884;12.534;2023-05-07T06:57:09;6.35;;;3.22;;
33413;SDS011;60055;41.884;12.534;2023-05-07T06:59:34;6.15;;;3.47;;
33413;SDS011;60055;41.884;12.534;2023-05-07T07:02:00;5.80;;;3.58;;
33413;SDS011;60055;41.884;12.534;2023-05-07T07:04:25;4.38;;;2.92;;
33413;SDS011;60055;41.884;12.534;2023-05-07T07:06:53;5.05;;;3.42;;
33413;SDS011;60055;41.884;12.534;2023-05-07T07:09:19;6.22;;;3.40;;
33413;SDS011;60055;41.884;12.534;2023-05-07T07:11:44;6.40;;;3.47;;
33413;SDS011;60055;41.884;12.534;2023-05-07T07:14:10;5.10;;;3.30;;
33413;SDS011;60055;41.884;12.534;2023-05-07T07:16:35;7.57;;;3.20;;
33413;SDS011;60055;41.884;12.534;2023-05-07T07:19:01;6.07;;;3.30;;
33413;SDS011;60055;41.884;12.534;2023-05-07T07:21:26;4.95;;;3.20;;
33413;SDS011;60055;41.884;12.534;2023-05-07T07:23:52;3.78;;;2.70;;
33413;SDS011;60055;41.884;12.534;2023-05-07T07:26:17;6.35;;;3.17;;
33413;SDS011;60055;41.884;12.534;2023-05-07T07:28:43;4.32;;;2.70;;
33413;SDS011;60055;41.884;12.534;2023-05-07T07:31:09;4.07;;;2.58;;
33413;SDS011;60055;41.884;12.534;2023-05-07T07:33:35;5.90;;;2.72;;
33413;SDS011;60055;41.884;12.534;2023-05-07T07:36:00;4.28;;;2.78;;
33413;SDS011;60055;41.884;12.534;2023-05-07T07:38:25;8.73;;;2.72;;
33413;SDS011;60055;41.884;12.534;2023-05-07T07:40:51;4.97;;;2.83;;
33413;SDS011;60055;41.884;12.534;2023-05-07T07:43:16;4.57;;;2.60;;
33413;SDS011;60055;41.884;12.534;2023-05-07T07:45:42;4.22;;;2.40;;
33413;SDS011;60055;41.884;12.534;2023-05-07T07:48:07;4.72;;;2.38;;
33413;SDS011;60055;41.884;12.534;2023-05-07T07:50:32;4.72;;;2.53;;
33413;SDS011;60055;41.884;12.534;2023-05-07T07:52:58;5.22;;;2.40;;
33413;SDS011;60055;41.884;12.534;2023-05-07T07:55:23;4.05;;;2.90;;
33413;SDS011;60055;41.884;12.534;2023-05-07T07:57:49;3.95;;;2.20;;
33413;SDS011;60055;41.884;12.534;2023-05-07T08:00:15;4.50;;;2.30;;
33413;SDS011;60055;41.884;12.534;2023-05-07T08:02:41;2.97;;;2.10;;
33413;SDS011;60055;41.884;12.534;2023-05-07T08:05:07;4.72;;;2.25;;
33413;SDS011;60055;41.884;12.534;2023-05-07T08:07:32;6.30;;;2.50;;
33413;SDS011;60055;41.884;12.534;2023-05-07T08:09:58;4.07;;;2.30;;
33413;SDS011;60055;41.884;12.534;2023-05-07T08:12:23;4.93;;;2.40;;
33413;SDS011;60055;41.884;12.534;2023-05-07T08:14:49;5.75;;;2.38;;
33413;SDS011;60055;41.884;12.534;2023-05-07T08:17:14;4.38;;;2.20;;
33413;SDS011;60055;41.884;12.534;2023-05-07T08:19:41;4.30;;;2.10;;
33413;SDS011;60055;41.884;12.534;2023-05-07T08:22:07;8.18;;;2.15;;
33413;SDS011;60055;41.884;12.534;2023-05-07T08:24:32;5.07;;;2.17;;
33413;SDS011;60055;41.884;12.534;2023-05-07T08:26:58;5.75;;;3.58;;
33413;SDS011;60055;41.884;12.534;2023-05-07T08:29:23;12.75;;;7.95;;
33413;SDS011;60055;41.884;12.534;2023-05-07T08:31:49;6.93;;;4.15;;
33413;SDS011;60055;41.884;12.534;2023-05-07T08:34:14;4.25;;;2.53;;
33413;SDS011;60055;41.884;12.534;2023-05-07T08:36:39;6.63;;;3.08;;
33413;SDS011;60055;41.884;12.534;2023-05-07T08:39:06;4.13;;;2.30;;
33413;SDS011;60055;41.884;12.534;2023-05-07T08:41:32;8.73;;;2.22;;
33413;SDS011;60055;41.884;12.534;2023-05-07T08:43:58;8.02;;;3.17;;
33413;SDS011;60055;41.884;12.534;2023-05-07T08:46:27;7.95;;;2.90;;
33413;SDS011;60055;41.884;12.534;2023-05-07T08:48:56;10.48;;;3.30;;
33413;SDS011;60055;41.884;12.534;2023-05-07T08:51:22;5.65;;;2.67;;
33413;SDS011;60055;41.884;12.534;2023-05-07T08:53:48;10.57;;;3.53;;
33413;SDS011;60055;41.884;12.534;2023-05-07T08:56:15;9.43;;;3.17;;
33413;SDS011;60055;41.884;12.534;2023-05-07T08:58:41;5.15;;;2.20;;
33413;SDS011;60055;41.884;12.534;2023-05-07T09:01:08;5.18;;;2.45;;
33413;SDS011;60055;41.884;12.534;2023-05-07T09:03:38;16.73;;;3.08;;
33413;SDS011;60055;41.884;12.534;2023-05-07T09:06:05;5.28;;;2.25;;
33413;SDS011;60055;41.884;12.534;2023-05-07T09:08:32;6.35;;;2.80;;
33413;SDS011;60055;41.884;12.534;2023-05-07T09:10:58;20.35;;;3.17;;
33413;SDS011;60055;41.884;12.534;2023-05-07T09:13:23;11.02;;;3.22;;
33413;SDS011;60055;41.884;12.534;2023-05-07T09:15:48;5.97;;;2.20;;
33413;SDS011;60055;41.884;12.534;2023-05-07T09:18:14;11.68;;;2.50;;
33413;SDS011;60055;41.884;12.534;2023-05-07T09:20:40;5.28;;;2.30;;
33413;SDS011;60055;41.884;12.534;2023-05-07T09:23:06;5.05;;;2.30;;
33413;SDS011;60055;41.884;12.534;2023-05-07T09:25:33;6.35;;;2.30;;
33413;SDS011;60055;41.884;12.534;2023-05-07T09:27:59;7.18;;;1.88;;
33413;SDS011;60055;41.884;12.534;2023-05-07T09:30:29;4.72;;;1.83;;
33413;SDS011;60055;41.884;12.534;2023-05-07T09:32:56;5.50;;;1.90;;
33413;SDS011;60055;41.884;12.534;2023-05-07T09:35:22;6.63;;;1.77;;
33413;SDS011;60055;41.884;12.534;2023-05-07T09:37:52;4.00;;;1.92;;
33413;SDS011;60055;41.884;12.534;2023-05-07T09:40:25;5.28;;;2.00;;
33413;SDS011;60055;41.884;12.534;2023-05-07T09:42:52;8.52;;;3.47;;
33413;SDS011;60055;41.884;12.534;2023-05-07T09:45:21;5.75;;;2.45;;
33413;SDS011;60055;41.884;12.534;2023-05-07T09:47:48;4.70;;;2.42;;
33413;SDS011;60055;41.884;12.534;2023-05-07T09:50:18;5.60;;;2.00;;
33413;SDS011;60055;41.884;12.534;2023-05-07T09:52:44;4.85;;;2.25;;
33413;SDS011;60055;41.884;12.534;2023-05-07T09:55:10;4.28;;;2.17;;
33413;SDS011;60055;41.884;12.534;2023-05-07T09:57:37;2.90;;;1.73;;
33413;SDS011;60055;41.884;12.534;2023-05-07T10:00:05;5.53;;;2.05;;
33413;SDS011;60055;41.884;12.534;2023-05-07T10:02:32;5.68;;;2.17;;
33413;SDS011;60055;41.884;12.534;2023-05-07T10:05:01;3.08;;;1.80;;
33413;SDS011;60055;41.884;12.534;2023-05-07T10:07:28;4.03;;;1.77;;
33413;SDS011;60055;41.884;12.534;2023-05-07T10:09:54;4.18;;;1.60;;
33413;SDS011;60055;41.884;12.534;2023-05-07T10:12:20;5.25;;;1.80;;
33413;SDS011;60055;41.884;12.534;2023-05-07T10:14:46;5.55;;;1.63;;
33413;SDS011;60055;41.884;12.534;2023-05-07T10:17:13;2.92;;;1.73;;
33413;SDS011;60055;41.884;12.534;2023-05-07T10:19:41;5.90;;;2.05;;
33413;SDS011;60055;41.884;12.534;2023-05-07T10:22:09;7.30;;;2.90;;
33413;SDS011;60055;41.884;12.534;2023-05-07T10:24:36;3.35;;;1.70;;
33413;SDS011;60055;41.884;12.534;2023-05-07T10:27:04;5.82;;;1.60;;
33413;SDS011;60055;41.884;12.534;2023-05-07T10:35:03;5.40;;;2.97;;
33413;SDS011;60055;41.884;12.534;2023-05-07T10:37:31;5.38;;;3.33;;
33413;SDS011;60055;41.884;12.534;2023-05-07T10:39:57;5.90;;;1.80;;
33413;SDS011;60055;41.884;12.534;2023-05-07T10:42:23;6.20;;;1.60;;
33413;SDS011;60055;41.884;12.534;2023-05-07T10:44:49;4.53;;;1.60;;
33413;SDS011;60055;41.884;12.534;2023-05-07T10:47:18;4.05;;;1.88;;
33413;SDS011;60055;41.884;12.534;2023-05-07T10:52:15;3.20;;;1.45;;
33413;SDS011;60055;41.884;12.534;2023-05-07T10:54:43;3.40;;;1.73;;
33413;SDS011;60055;41.884;12.534;2023-05-07T11:03:23;4.78;;;2.10;;
33413;SDS011;60055;41.884;12.534;2023-05-07T11:05:29;5.07;;;1.70;;
33413;SDS011;60055;41.884;12.534;2023-05-07T11:07:58;4.15;;;1.90;;
33413;SDS011;60055;41.884;12.534;2023-05-07T11:13:12;6.82;;;1.88;;
33413;SDS011;60055;41.884;12.534;2023-05-07T11:15:39;2.83;;;1.70;;
33413;SDS011;60055;41.884;12.534;2023-05-07T11:18:10;4.25;;;1.80;;
33413;SDS011;60055;41.884;12.534;2023-05-07T11:26:18;4.82;;;3.10;;
33413;SDS011;60055;41.884;12.534;2023-05-07T11:28:43;7.15;;;1.90;;
33413;SDS011;60055;41.884;12.534;2023-05-07T11:31:10;7.80;;;2.30;;
33413;SDS011;60055;41.884;12.534;2023-05-07T11:33:35;6.45;;;1.98;;
33413;SDS011;60055;41.884;12.534;2023-05-07T11:36:03;3.75;;;2.00;;
33413;SDS011;60055;41.884;12.534;2023-05-07T11:38:29;4.78;;;3.15;;
33413;SDS011;60055;41.884;12.534;2023-05-07T11:40:56;3.53;;;2.10;;
33413;SDS011;60055;41.884;12.534;2023-05-07T11:43:23;4.53;;;1.83;;
33413;SDS011;60055;41.884;12.534;2023-05-07T11:45:49;3.30;;;1.90;;
33413;SDS011;60055;41.884;12.534;2023-05-07T11:48:15;6.63;;;1.95;;
33413;SDS011;60055;41.884;12.534;2023-05-07T11:50:50;3.60;;;2.33;;
33413;SDS011;60055;41.884;12.534;2023-05-07T11:53:27;3.42;;;1.90;;
33413;SDS011;60055;41.884;12.534;2023-05-07T11:55:59;3.08;;;1.60;;
33413;SDS011;60055;41.884;12.534;2023-05-07T11:58:25;4.25;;;2.10;;
33413;SDS011;60055;41.884;12.534;2023-05-07T12:00:52;2.53;;;1.73;;
33413;SDS011;60055;41.884;12.534;2023-05-07T12:03:18;5.53;;;2.03;;
33413;SDS011;60055;41.884;12.534;2023-05-07T12:05:47;4.80;;;2.30;;
33413;SDS011;60055;41.884;12.534;2023-05-07T12:08:19;4.07;;;2.00;;
33413;SDS011;60055;41.884;12.534;2023-05-07T12:10:46;4.38;;;1.90;;
33413;SDS011;60055;41.884;12.534;2023-05-07T12:15:41;5.97;;;2.10;;
33413;SDS011;60055;41.884;12.534;2023-05-07T12:18:07;2.58;;;2.00;;
33413;SDS011;60055;41.884;12.534;2023-05-07T12:20:34;2.80;;;1.90;;
33413;SDS011;60055;41.884;12.534;2023-05-07T12:23:01;4.93;;;2.28;;
33413;SDS011;60055;41.884;12.534;2023-05-07T12:25:29;2.47;;;1.70;;
33413;SDS011;60055;41.884;12.534;2023-05-07T12:27:56;3.70;;;1.98;;
33413;SDS011;60055;41.884;12.534;2023-05-07T12:30:23;4.13;;;1.95;;
33413;SDS011;60055;41.884;12.534;2023-05-07T12:32:52;3.50;;;2.10;;
33413;SDS011;60055;41.884;12.534;2023-05-07T12:35:25;2.60;;;1.88;;
33413;SDS011;60055;41.884;12.534;2023-05-07T12:37:58;6.47;;;4.38;;
33413;SDS011;60055;41.884;12.534;2023-05-07T12:41:02;3.40;;;2.35;;
33413;SDS011;60055;41.884;12.534;2023-05-07T12:43:21;5.15;;;2.90;;
33413;SDS011;60055;41.884;12.534;2023-05-07T12:45:52;6.00;;;1.80;;
33413;SDS011;60055;41.884;12.534;2023-05-07T12:48:20;3.67;;;1.90;;
33413;SDS011;60055;41.884;12.534;2023-05-07T12:50:49;4.00;;;2.13;;
33413;SDS011;60055;41.884;12.534;2023-05-07T12:53:15;3.50;;;1.92;;
33413;SDS011;60055;41.884;12.534;2023-05-07T12:55:44;2.63;;;1.85;;
33413;SDS011;60055;41.884;12.534;2023-05-07T12:58:18;3.55;;;1.90;;
33413;SDS011;60055;41.884;12.534;2023-05-07T13:00:47;6.72;;;2.13;;
33413;SDS011;60055;41.884;12.534;2023-05-07T13:03:20;4.40;;;1.70;;
33413;SDS011;60055;41.884;12.534;2023-05-07T13:05:47;3.08;;;1.90;;
33413;SDS011;60055;41.884;12.534;2023-05-07T13:08:22;7.25;;;2.00;;
33413;SDS011;60055;41.884;12.534;2023-05-07T13:10:48;3.88;;;1.85;;
33413;SDS011;60055;41.884;12.534;2023-05-07T13:13:14;3.45;;;2.17;;
33413;SDS011;60055;41.884;12.534;2023-05-07T13:15:39;4.22;;;2.50;;
33413;SDS011;60055;41.884;12.534;2023-05-07T13:18:05;4.07;;;2.28;;
33413;SDS011;60055;41.884;12.534;2023-05-07T13:20:30;3.00;;;1.95;;
33413;SDS011;60055;41.884;12.534;2023-05-07T13:22:55;3.30;;;2.20;;
33413;SDS011;60055;41.884;12.534;2023-05-07T13:25:21;5.50;;;2.40;;
33413;SDS011;60055;41.884;12.534;2023-05-07T13:27:46;3.22;;;1.70;;
33413;SDS011;60055;41.884;12.534;2023-05-07T13:30:12;4.10;;;1.80;;
33413;SDS011;60055;41.884;12.534;2023-05-07T13:32:37;4.75;;;1.67;;
33413;SDS011;60055;41.884;12.534;2023-05-07T13:35:03;3.92;;;1.85;;
33413;SDS011;60055;41.884;12.534;2023-05-07T13:37:29;2.55;;;1.70;;
33413;SDS011;60055;41.884;12.534;2023-05-07T13:39:54;8.05;;;1.73;;
33413;SDS011;60055;41.884;12.534;2023-05-07T13:42:20;4.35;;;1.70;;
33413;SDS011;60055;41.884;12.534;2023-05-07T13:44:45;3.55;;;1.70;;
33413;SDS011;60055;41.884;12.534;2023-05-07T13:47:11;3.75;;;1.75;;
33413;SDS011;60055;41.884;12.534;2023-05-07T13:49:36;3.88;;;2.00;;
33413;SDS011;60055;41.884;12.534;2023-05-07T13:52:02;2.83;;;1.70;;
33413;SDS011;60055;41.884;12.534;2023-05-07T13:54:28;3.75;;;1.80;;
33413;SDS011;60055;41.884;12.534;2023-05-07T13:56:53;3.05;;;1.45;;
33413;SDS011;60055;41.884;12.534;2023-05-07T13:59:19;4.68;;;1.70;;
33413;SDS011;60055;41.884;12.534;2023-05-07T14:01:44;4.93;;;1.50;;
33413;SDS011;60055;41.884;12.534;2023-05-07T14:04:10;7.35;;;3.40;;
33413;SDS011;60055;41.884;12.534;2023-05-07T14:06:35;5.70;;;2.90;;
33413;SDS011;60055;41.884;12.534;2023-05-07T14:09:01;5.75;;;2.70;;
33413;SDS011;60055;41.884;12.534;2023-05-07T14:11:26;4.35;;;2.60;;
33413;SDS011;60055;41.884;12.534;2023-05-07T14:13:52;3.80;;;2.10;;
33413;SDS011;60055;41.884;12.534;2023-05-07T14:16:17;3.88;;;2.03;;
33413;SDS011;60055;41.884;12.534;2023-05-07T14:18:43;2.47;;;1.90;;
33413;SDS011;60055;41.884;12.534;2023-05-07T14:21:08;3.63;;;1.60;;
33413;SDS011;60055;41.884;12.534;2023-05-07T14:23:34;4.35;;;2.03;;
33413;SDS011;60055;41.884;12.534;2023-05-07T14:26:00;3.63;;;2.55;;
33413;SDS011;60055;41.884;12.534;2023-05-07T14:28:25;3.03;;;2.00;;
33413;SDS011;60055;41.884;12.534;2023-05-07T14:30:51;3.65;;;2.00;;
33413;SDS011;60055;41.884;12.534;2023-05-07T14:33:16;4.18;;;1.70;;
33413;SDS011;60055;41.884;12.534;2023-05-07T14:35:42;4.32;;;1.88;;
33413;SDS011;60055;41.884;12.534;2023-05-07T14:38:12;8.93;;;2.10;;
33413;SDS011;60055;41.884;12.534;2023-05-07T14:40:38;6.00;;;1.75;;
33413;SDS011;60055;41.884;12.534;2023-05-07T14:43:03;3.03;;;1.80;;
33413;SDS011;60055;41.884;12.534;2023-05-07T14:45:29;2.38;;;1.48;;
33413;SDS011;60055;41.884;12.534;2023-05-07T14:47:54;3.72;;;1.80;;
33413;SDS011;60055;41.884;12.534;2023-05-07T14:50:20;4.07;;;1.73;;